Ravensdale, Washington
Current Conditions -  °F | °C
As of 10:53 AM on Wednesday 26 Nov 2014 (Local Time) from KRNT Reporting Station
Overcast Overcast  
Wind Chill: 60°   Ceiling: 6500
Heat Index: 60°   Visibility: 10mi
Dew Point: 52°   Wind: 5mph
Humidity: 75%   Direction: 140°SE
Pressure: 30.09"   Gusts: NA
Location:  47.35°N, 121.99°W
Report Text: KRNT 261853Z 14004KT 10SM FEW041 OVC065 16/11 A3009 RMK AO2 SLP195 T01560111
Loading
Personal Weather Stations






























Interactive Weather Map New forecast layout! Learn more

10-Day Weather Forecast

Advertisements
Track Severe Weather on mobile